createdAt,value
2022-12-31T00:01:52.851Z,101249.59
2022-12-31T00:04:56.520Z,101252.28
2022-12-31T00:07:59.879Z,101248.72
2022-12-31T00:11:03.504Z,101260.31
2022-12-31T00:14:07.293Z,101246.97
2022-12-31T00:17:11.249Z,101257.69
2022-12-31T00:20:14.633Z,101251.44
2022-12-31T00:23:18.215Z,101263.91
2022-12-31T00:26:24.989Z,101269.25
2022-12-31T00:29:28.594Z,101266.56
2022-12-31T00:32:31.910Z,101266.56
2022-12-31T00:35:36.546Z,101262.97
2022-12-31T00:38:41.383Z,101268.38
2022-12-31T00:41:45.508Z,101269.28
2022-12-31T00:44:49.042Z,101281.72
2022-12-31T00:47:55.103Z,101292.41
2022-12-31T00:50:58.765Z,101296.00
2022-12-31T00:54:02.357Z,101295.13
2022-12-31T00:57:05.517Z,101304.03
2022-12-31T01:00:10.980Z,101302.28
2022-12-31T01:03:14.222Z,101294.28
2022-12-31T01:06:18.329Z,101301.37
2022-12-31T01:09:21.898Z,101299.62
2022-12-31T01:12:25.793Z,101302.28
2022-12-31T01:15:29.106Z,101302.28
2022-12-31T01:18:34.407Z,101300.50
2022-12-31T01:21:40.942Z,101295.16
2022-12-31T01:24:44.636Z,101308.59
2022-12-31T01:27:47.757Z,101309.47
2022-12-31T01:30:54.145Z,101309.53
2022-12-31T01:33:58.034Z,101296.16
2022-12-31T01:37:01.545Z,101305.13
2022-12-31T01:40:05.900Z,101316.69
2022-12-31T01:43:18.176Z,101317.66
2022-12-31T01:46:40.446Z,101315.84
2022-12-31T01:49:58.571Z,101308.69
2022-12-31T01:53:05.195Z,101317.63
2022-12-31T01:56:09.204Z,101320.31
2022-12-31T01:59:17.751Z,101317.63
2022-12-31T02:02:21.450Z,101318.56
2022-12-31T02:05:38.311Z,101320.31
2022-12-31T02:08:42.327Z,101307.03
2022-12-31T02:11:46.319Z,101308.81
2022-12-31T02:14:53.846Z,101303.47
2022-12-31T02:18:27.077Z,101307.94
2022-12-31T02:21:30.604Z,101305.28
2022-12-31T02:25:06.594Z,101296.38
2022-12-31T02:28:34.821Z,101302.59
2022-12-31T02:31:50.707Z,101321.31
2022-12-31T02:35:03.283Z,101326.66
2022-12-31T02:38:14.823Z,101327.56
2022-12-31T02:41:38.337Z,101314.19
2022-12-31T02:44:42.914Z,101324.87
2022-12-31T02:48:25.340Z,101330.22
2022-12-31T02:51:45.278Z,101332.00
2022-12-31T02:54:54.700Z,101322.19
2022-12-31T02:58:11.488Z,101310.63
2022-12-31T03:01:44.078Z,101296.38
2022-12-31T03:04:52.308Z,101293.78
2022-12-31T03:07:55.515Z,101294.59
2022-12-31T03:10:58.979Z,101284.81
2022-12-31T03:14:02.456Z,101286.62
2022-12-31T03:17:06.176Z,101287.50
2022-12-31T03:20:28.483Z,101291.09
2022-12-31T03:23:33.684Z,101298.25
2022-12-31T03:26:36.853Z,101302.69
2022-12-31T03:29:40.430Z,101314.31
2022-12-31T03:32:47.301Z,101318.75
2022-12-31T03:35:53.196Z,101314.31
2022-12-31T03:38:56.935Z,101288.50
2022-12-31T03:42:00.512Z,101285.84
2022-12-31T03:45:04.908Z,101274.22
2022-12-31T03:48:09.630Z,101289.38
2022-12-31T03:51:13.620Z,101283.09
2022-12-31T03:54:17.363Z,101293.81
2022-12-31T03:57:20.634Z,101304.50
2022-12-31T04:00:24.525Z,101312.50
2022-12-31T04:03:28.887Z,101305.38
2022-12-31T04:06:32.052Z,101305.41
2022-12-31T04:09:35.826Z,101300.88
2022-12-31T04:12:39.354Z,101297.34
2022-12-31T04:15:42.798Z,101306.25
2022-12-31T04:18:46.133Z,101310.72
2022-12-31T04:21:49.862Z,101308.91
2022-12-31T04:24:53.084Z,101300.00
2022-12-31T04:27:58.189Z,101310.72
2022-12-31T04:31:01.399Z,101322.28
2022-12-31T04:34:04.961Z,101331.16
2022-12-31T04:37:08.292Z,101322.28
2022-12-31T04:40:14.413Z,101324.94
2022-12-31T04:43:18.165Z,101324.94
2022-12-31T04:46:29.325Z,101331.16
2022-12-31T04:49:32.692Z,101340.06
2022-12-31T04:52:42.333Z,101344.53
2022-12-31T04:55:46.284Z,101349.00
2022-12-31T04:58:50.325Z,101359.72
2022-12-31T05:01:53.688Z,101357.91
2022-12-31T05:04:57.411Z,101363.25
2022-12-31T05:08:00.620Z,101367.72
2022-12-31T05:11:05.332Z,101374.84
2022-12-31T05:14:08.463Z,101366.81
2022-12-31T05:17:12.211Z,101354.38
2022-12-31T05:20:15.529Z,101349.88
2022-12-31T05:23:22.775Z,101368.59
2022-12-31T05:26:26.416Z,101366.81
2022-12-31T05:29:31.462Z,101368.63
2022-12-31T05:32:36.869Z,101388.19
2022-12-31T05:35:40.180Z,101382.84
2022-12-31T05:38:43.298Z,101381.06
2022-12-31T05:41:46.719Z,101386.41
2022-12-31T05:44:50.294Z,101373.03
2022-12-31T05:47:53.760Z,101380.19
2022-12-31T05:50:57.446Z,101379.25
2022-12-31T05:54:00.847Z,101382.84
2022-12-31T05:57:04.789Z,101373.97
2022-12-31T06:00:10.276Z,101387.28
2022-12-31T06:03:16.614Z,101386.41
2022-12-31T06:06:21.257Z,101396.22
2022-12-31T06:09:24.622Z,101392.69
2022-12-31T06:12:28.337Z,101404.25
2022-12-31T06:15:33.239Z,101398.84
2022-12-31T06:18:37.611Z,101389.06
2022-12-31T06:21:40.779Z,101383.66
2022-12-31T06:24:44.232Z,101389.94
2022-12-31T06:27:48.021Z,101377.50
2022-12-31T06:31:05.976Z,101380.09
2022-12-31T06:34:12.726Z,101392.56
2022-12-31T06:37:16.236Z,101405.03
2022-12-31T06:40:19.436Z,101420.19
2022-12-31T06:43:23.092Z,101416.56
2022-12-31T06:46:26.940Z,101420.09
2022-12-31T06:49:30.916Z,101416.50
2022-12-31T06:52:34.200Z,101408.47
2022-12-31T06:55:37.985Z,101428.06
2022-12-31T06:58:43.087Z,101428.94
2022-12-31T07:02:05.239Z,101431.56
2022-12-31T07:05:30.288Z,101436.91
2022-12-31T07:09:00.005Z,101435.06
2022-12-31T07:12:44.014Z,101431.47
2022-12-31T07:16:17.503Z,101428.72
2022-12-31T07:19:33.269Z,101434.94
2022-12-31T07:22:37.540Z,101434.88
2022-12-31T07:25:51.616Z,101448.19
2022-12-31T07:29:06.131Z,101446.38
2022-12-31T07:32:40.704Z,101449.94
2022-12-31T07:36:12.377Z,101444.56
2022-12-31T07:39:27.354Z,101447.19
2022-12-31T07:42:44.853Z,101448.97
2022-12-31T07:46:13.657Z,101468.50
2022-12-31T07:49:17.718Z,101470.25
2022-12-31T07:52:22.314Z,101462.22
2022-12-31T07:55:29.189Z,101444.34
2022-12-31T07:58:46.324Z,101453.22
2022-12-31T08:01:57.151Z,101475.38
2022-12-31T08:05:30.496Z,101492.25
2022-12-31T08:09:16.331Z,101484.94
2022-12-31T08:12:21.578Z,101468.84
2022-12-31T08:15:30.138Z,101474.06
2022-12-31T08:18:37.070Z,101472.97
2022-12-31T08:21:53.881Z,101472.75
2022-12-31T08:25:15.982Z,101469.00
2022-12-31T08:28:41.225Z,101472.56
2022-12-31T08:32:20.662Z,101488.53
2022-12-31T08:35:33.807Z,101480.44
2022-12-31T08:39:00.663Z,101507.19
2022-12-31T08:42:14.507Z,101505.34
2022-12-31T08:45:22.965Z,101499.06
2022-12-31T08:48:26.891Z,101489.19
2022-12-31T08:51:31.150Z,101503.47
2022-12-31T08:54:35.077Z,101518.75
2022-12-31T08:58:02.925Z,101528.34
2022-12-31T09:01:08.147Z,101533.66
2022-12-31T09:04:25.164Z,101544.44
2022-12-31T09:07:33.913Z,101549.91
2022-12-31T09:10:57.859Z,101542.66
2022-12-31T09:14:21.469Z,101539.97
2022-12-31T09:17:25.711Z,101533.56
2022-12-31T09:20:43.052Z,101511.97
2022-12-31T09:23:52.965Z,101509.09
2022-12-31T09:27:06.309Z,101501.03
2022-12-31T09:30:21.571Z,101489.34
2022-12-31T09:33:27.703Z,101495.41
2022-12-31T09:36:39.714Z,101493.44
2022-12-31T09:39:45.847Z,101491.56
2022-12-31T09:43:14.590Z,101489.00
2022-12-31T09:46:42.783Z,101481.81
2022-12-31T09:49:58.135Z,101466.38
2022-12-31T09:53:19.511Z,101466.78
2022-12-31T09:57:01.976Z,101461.09
2022-12-31T10:00:44.212Z,101459.91
2022-12-31T10:03:59.889Z,101453.50
2022-12-31T10:07:12.865Z,101465.13
2022-12-31T10:10:59.298Z,101467.69
2022-12-31T10:14:17.243Z,101464.16
2022-12-31T10:17:50.098Z,101472.84
2022-12-31T10:21:25.079Z,101468.16
2022-12-31T10:24:49.376Z,101464.41
2022-12-31T10:28:00.500Z,101451.50
2022-12-31T10:31:41.070Z,101439.12
2022-12-31T10:34:58.665Z,101450.56
2022-12-31T10:38:30.106Z,101449.88
2022-12-31T10:41:55.783Z,101454.41
2022-12-31T10:45:24.134Z,101443.81
2022-12-31T10:48:57.941Z,101452.03
2022-12-31T10:52:15.656Z,101453.09
2022-12-31T10:55:53.100Z,101447.72
2022-12-31T10:59:27.388Z,101451.38
2022-12-31T11:03:01.120Z,101455.78
2022-12-31T11:06:34.124Z,101460.19
2022-12-31T11:09:56.345Z,101461.06
2022-12-31T11:13:37.289Z,101457.50
2022-12-31T11:17:02.444Z,101461.06
2022-12-31T11:20:43.095Z,101467.19
2022-12-31T11:24:04.833Z,101463.41
2022-12-31T11:27:36.269Z,101451.41
2022-12-31T11:31:04.807Z,101464.72
2022-12-31T11:34:20.647Z,101451.72
2022-12-31T11:37:30.094Z,101455.97
2022-12-31T11:40:54.302Z,101458.44
2022-12-31T11:44:22.560Z,101440.44
2022-12-31T11:51:43.089Z,101433.69
2022-12-31T11:55:19.597Z,101449.16
2022-12-31T11:58:31.305Z,101456.47
2022-12-31T12:01:51.859Z,101470.03
2022-12-31T12:05:10.682Z,101447.47
2022-12-31T12:08:14.916Z,101451.84
2022-12-31T12:11:25.691Z,101445.28
2022-12-31T12:14:31.591Z,101450.63
2022-12-31T12:17:35.796Z,101459.44
2022-12-31T12:20:44.389Z,101442.22
2022-12-31T12:24:01.355Z,101440.72
2022-12-31T12:27:21.691Z,101430.19
2022-12-31T12:30:28.405Z,101427.75
2022-12-31T12:33:48.121Z,101435.97
2022-12-31T12:36:51.730Z,101436.91
2022-12-31T12:39:59.281Z,101440.34
2022-12-31T12:43:03.370Z,101440.25
2022-12-31T12:46:33.427Z,101439.97
2022-12-31T12:49:40.390Z,101433.53
2022-12-31T12:53:08.126Z,101447.47
2022-12-31T12:56:33.993Z,101433.91
2022-12-31T12:59:40.871Z,101435.47
2022-12-31T13:03:16.494Z,101424.84
2022-12-31T13:06:46.220Z,101430.09
2022-12-31T13:09:59.446Z,101417.13
2022-12-31T13:13:25.439Z,101419.66
2022-12-31T13:16:42.989Z,101416.75
2022-12-31T13:20:08.140Z,101430.94
2022-12-31T13:23:14.165Z,101420.91
2022-12-31T13:26:28.562Z,101427.16
2022-12-31T13:29:35.050Z,101426.41
2022-12-31T13:32:42.950Z,101411.59
2022-12-31T13:35:49.118Z,101438.78
2022-12-31T13:38:59.156Z,101437.22
2022-12-31T13:42:21.464Z,101442.81
2022-12-31T13:45:37.294Z,101447.37
2022-12-31T13:48:49.814Z,101440.37
2022-12-31T13:52:06.278Z,101462.12
2022-12-31T13:55:18.569Z,101455.91
2022-12-31T13:58:36.131Z,101452.38
2022-12-31T14:01:50.753Z,101457.03
2022-12-31T14:05:00.727Z,101449.16
2022-12-31T14:08:06.587Z,101457.47
2022-12-31T14:12:01.479Z,101459.44
2022-12-31T14:15:16.689Z,101438.72
2022-12-31T14:18:46.275Z,101430.56
2022-12-31T14:22:03.686Z,101440.25
2022-12-31T14:25:26.539Z,101446.38
2022-12-31T14:28:38.334Z,101442.69
2022-12-31T14:31:49.840Z,101454.34
2022-12-31T14:35:06.634Z,101469.50
2022-12-31T14:38:32.610Z,101472.16
2022-12-31T14:41:49.047Z,101465.00
2022-12-31T14:45:04.296Z,101449.06
2022-12-31T14:48:49.572Z,101448.56
2022-12-31T14:51:53.116Z,101464.31
2022-12-31T14:55:02.725Z,101469.97
2022-12-31T14:58:28.091Z,101466.56
2022-12-31T15:01:45.225Z,101462.25
2022-12-31T15:04:49.073Z,101468.69
2022-12-31T15:07:52.078Z,101484.81
2022-12-31T15:11:10.705Z,101482.88
2022-12-31T15:14:37.391Z,101473.94
2022-12-31T15:17:46.983Z,101465.88
2022-12-31T15:21:19.405Z,101475.69
2022-12-31T15:24:25.453Z,101487.22
2022-12-31T15:27:38.972Z,101486.44
2022-12-31T15:30:48.755Z,101478.38
2022-12-31T15:34:23.776Z,101482.88
2022-12-31T15:37:33.346Z,101492.97
2022-12-31T15:40:48.471Z,101484.19
2022-12-31T15:44:01.184Z,101490.50
2022-12-31T15:47:35.517Z,101495.97
2022-12-31T15:50:40.003Z,101516.72
2022-12-31T15:53:52.322Z,101514.38
2022-12-31T15:56:55.859Z,101515.47
2022-12-31T16:00:08.091Z,101506.78
2022-12-31T16:03:30.319Z,101501.75
2022-12-31T16:06:38.254Z,101489.59
2022-12-31T16:09:41.994Z,101485.47
2022-12-31T16:12:45.859Z,101485.56
2022-12-31T16:16:08.963Z,101489.34
2022-12-31T16:19:34.078Z,101502.09
2022-12-31T16:22:40.117Z,101503.22
2022-12-31T16:25:45.579Z,101514.19
2022-12-31T16:28:49.645Z,101496.59
2022-12-31T16:31:54.507Z,101495.91
2022-12-31T16:34:58.056Z,101501.50
2022-12-31T16:38:12.474Z,101510.63
2022-12-31T16:41:17.780Z,101511.50
2022-12-31T16:44:26.974Z,101512.22
2022-12-31T16:47:40.602Z,101516.56
2022-12-31T16:50:46.598Z,101508.50
2022-12-31T16:53:50.664Z,101505.69
2022-12-31T16:56:54.269Z,101496.88
2022-12-31T17:00:04.458Z,101514.09
2022-12-31T17:03:15.656Z,101505.41
2022-12-31T17:06:21.555Z,101511.66
2022-12-31T17:09:34.321Z,101511.84
2022-12-31T17:13:28.446Z,101515.50
2022-12-31T17:16:18.526Z,101519.16
2022-12-31T17:19:43.927Z,101531.69
2022-12-31T17:22:47.324Z,101530.91
2022-12-31T17:26:03.360Z,101540.75
2022-12-31T17:29:26.111Z,101539.81
2022-12-31T17:32:36.847Z,101545.00
2022-12-31T17:35:42.601Z,101536.78
2022-12-31T17:38:46.190Z,101539.31
2022-12-31T17:41:53.611Z,101532.13
2022-12-31T17:45:01.713Z,101526.75
2022-12-31T17:48:05.865Z,101518.72
2022-12-31T17:51:12.280Z,101524.19
2022-12-31T17:54:21.089Z,101521.63
2022-12-31T17:57:28.256Z,101517.12
2022-12-31T18:00:33.419Z,101517.25
2022-12-31T18:03:37.025Z,101524.38
2022-12-31T18:06:40.483Z,101521.72
2022-12-31T18:09:44.013Z,101527.06
2022-12-31T18:12:48.643Z,101526.97
2022-12-31T18:15:53.563Z,101533.19
2022-12-31T18:18:59.209Z,101539.38
2022-12-31T18:22:02.929Z,101540.16
2022-12-31T18:25:07.572Z,101547.19
2022-12-31T18:28:12.001Z,101557.91
2022-12-31T18:31:20.616Z,101565.06
2022-12-31T18:34:24.116Z,101573.94
2022-12-31T18:37:29.060Z,101575.72
2022-12-31T18:40:33.187Z,101564.16
2022-12-31T18:43:36.563Z,101576.66
2022-12-31T18:46:41.044Z,101575.72
2022-12-31T18:49:48.738Z,101572.31
2022-12-31T18:52:52.805Z,101570.59
2022-12-31T18:55:57.926Z,101569.03
2022-12-31T18:59:03.431Z,101571.94
2022-12-31T19:02:15.367Z,101574.72
2022-12-31T19:05:31.184Z,101566.00
2022-12-31T19:08:36.657Z,101570.69
2022-12-31T19:11:41.176Z,101577.16
2022-12-31T19:14:46.293Z,101577.38
2022-12-31T19:17:49.751Z,101579.28
2022-12-31T19:20:52.971Z,101584.69
2022-12-31T19:23:56.643Z,101588.19
2022-12-31T19:27:01.133Z,101595.38
2022-12-31T19:30:05.160Z,101578.47
2022-12-31T19:33:11.316Z,101569.53
2022-12-31T19:36:20.313Z,101557.12
2022-12-31T19:39:23.488Z,101568.81
2022-12-31T19:42:27.247Z,101564.44
2022-12-31T19:45:32.404Z,101552.97
2022-12-31T19:48:40.717Z,101548.59
2022-12-31T19:51:43.954Z,101540.72
2022-12-31T19:54:47.578Z,101548.84
2022-12-31T19:57:51.474Z,101551.50
2022-12-31T20:01:02.346Z,101554.28
2022-12-31T20:04:06.930Z,101548.16
2022-12-31T20:07:10.217Z,101534.87
2022-12-31T20:10:14.732Z,101550.88
2022-12-31T20:13:19.107Z,101547.41
2022-12-31T20:16:24.704Z,101548.34
2022-12-31T20:19:28.024Z,101547.53
2022-12-31T20:22:31.956Z,101551.16
2022-12-31T20:25:35.146Z,101548.44
2022-12-31T20:28:40.727Z,101553.66
2022-12-31T20:31:44.068Z,101543.06
2022-12-31T20:34:47.549Z,101548.47
2022-12-31T20:37:50.852Z,101554.81
2022-12-31T20:40:54.508Z,101570.88
2022-12-31T20:44:01.288Z,101568.09
2022-12-31T20:47:04.815Z,101558.25
2022-12-31T20:50:11.879Z,101556.38
2022-12-31T20:53:15.580Z,101555.53
2022-12-31T20:56:19.253Z,101547.56
2022-12-31T20:59:22.755Z,101555.63
2022-12-31T21:02:40.215Z,101553.94
2022-12-31T21:05:52.243Z,101553.94
2022-12-31T21:09:00.095Z,101560.25
2022-12-31T21:12:21.945Z,101573.63
2022-12-31T21:15:25.147Z,101578.09
2022-12-31T21:18:29.717Z,101566.53
2022-12-31T21:21:33.887Z,101561.25
2022-12-31T21:24:39.248Z,101573.44
2022-12-31T21:27:42.664Z,101585.00
2022-12-31T21:30:47.355Z,101585.87
2022-12-31T21:33:51.680Z,101584.09
2022-12-31T21:36:55.681Z,101584.94
2022-12-31T21:39:59.024Z,101581.44
2022-12-31T21:43:03.132Z,101594.75
2022-12-31T21:46:07.708Z,101585.78
2022-12-31T21:49:11.153Z,101593.78
2022-12-31T21:52:28.006Z,101595.66
2022-12-31T21:55:50.154Z,101597.47
2022-12-31T21:59:16.954Z,101603.56
2022-12-31T22:02:39.596Z,101598.22
2022-12-31T22:06:14.701Z,101603.53
2022-12-31T22:09:17.867Z,101597.31
2022-12-31T22:12:23.141Z,101605.34
2022-12-31T22:15:27.211Z,101599.09
2022-12-31T22:18:32.325Z,101592.97
2022-12-31T22:21:35.685Z,101597.41
2022-12-31T22:24:39.213Z,101591.16
2022-12-31T22:27:53.041Z,101581.38
2022-12-31T22:31:08.205Z,101578.72
2022-12-31T22:34:11.542Z,101579.69
2022-12-31T22:37:46.555Z,101576.22
2022-12-31T22:40:38.091Z,101577.19
2022-12-31T22:43:44.012Z,101578.16
2022-12-31T22:46:49.342Z,101579.13
2022-12-31T22:49:58.198Z,101590.72
2022-12-31T22:53:02.920Z,101577.34
2022-12-31T22:56:09.165Z,101581.81
2022-12-31T22:59:12.751Z,101579.16
2022-12-31T23:02:17.490Z,101583.69
2022-12-31T23:05:20.633Z,101576.59
2022-12-31T23:08:24.282Z,101578.41
2022-12-31T23:11:27.560Z,101572.25
2022-12-31T23:14:50.934Z,101577.59
2022-12-31T23:18:13.616Z,101564.31
2022-12-31T23:21:36.483Z,101569.69
2022-12-31T23:24:40.770Z,101570.62
2022-12-31T23:27:44.258Z,101573.34
2022-12-31T23:30:49.329Z,101554.66
2022-12-31T23:33:54.300Z,101564.47
2022-12-31T23:36:57.669Z,101563.56
2022-12-31T23:40:01.369Z,101565.34
2022-12-31T23:43:06.567Z,101568.91
2022-12-31T23:46:11.229Z,101567.97
2022-12-31T23:49:15.062Z,101562.63
2022-12-31T23:52:20.489Z,101564.38
2022-12-31T23:55:23.860Z,101579.50
2022-12-31T23:58:27.419Z,101576.84
